Time;durP1;ratioP1;P1;durP2;ratioP2;P2;SDS_P1;SDS_P2;PMS_P1;PMS_P2;Temp;Humidity;BMP_temperature;BMP_pressure;BME280_temperature;BME280_humidity;BME280_pressure;Samples;Min_cycle;Max_cycle;Signal;HPM_P1;HPM_P2
2022/10/12 00:00:53;;;;;;;16.67;8.45;;;;;;;7.67;100.00;102518.94;5079945;28;20056;-66
2022/10/12 00:03:19;;;;;;;18.50;8.23;;;;;;;7.67;100.00;102511.06;5088276;28;20024;-66
2022/10/12 00:05:44;;;;;;;16.92;8.38;;;;;;;7.64;100.00;102510.00;5092253;28;20368;-66
2022/10/12 00:08:10;;;;;;;17.30;7.25;;;;;;;7.60;100.00;102511.56;5085178;28;20099;-66
2022/10/12 00:10:40;;;;;;;17.60;7.63;;;;;;;7.58;100.00;102507.94;5086033;28;20023;-67
2022/10/12 00:13:06;;;;;;;21.10;8.30;;;;;;;7.54;100.00;102505.97;5074320;28;20111;-66
2022/10/12 00:15:31;;;;;;;20.83;7.75;;;;;;;7.51;100.00;102506.69;5086905;28;20103;-66
2022/10/12 00:17:56;;;;;;;13.27;7.20;;;;;;;7.50;100.00;102507.53;5090995;28;20028;-67
2022/10/12 00:20:22;;;;;;;19.20;7.55;;;;;;;7.48;100.00;102503.00;5076959;28;20065;-67
2022/10/12 00:22:47;;;;;;;14.88;6.55;;;;;;;7.45;100.00;102501.13;5083845;28;20024;-67
2022/10/12 00:25:12;;;;;;;17.45;7.45;;;;;;;7.42;100.00;102496.63;5085382;28;20032;-67
2022/10/12 00:27:38;;;;;;;19.70;7.78;;;;;;;7.40;100.00;102502.56;5087294;28;20016;-68
2022/10/12 00:30:04;;;;;;;14.15;7.70;;;;;;;7.36;100.00;102501.50;5085696;28;20590;-66
2022/10/12 00:32:29;;;;;;;17.85;8.90;;;;;;;7.30;100.00;102503.78;5088292;28;20033;-66
2022/10/12 00:34:54;;;;;;;16.40;8.05;;;;;;;7.27;100.00;102508.84;5083337;28;20159;-67
2022/10/12 00:37:20;;;;;;;20.25;8.90;;;;;;;7.27;100.00;102501.00;5081842;28;20062;-68
2022/10/12 00:39:45;;;;;;;18.70;8.25;;;;;;;7.23;100.00;102499.00;5086429;28;20081;-67
2022/10/12 00:42:11;;;;;;;15.75;7.75;;;;;;;7.18;100.00;102500.47;5081857;28;20088;-67
2022/10/12 00:44:45;;;;;;;17.17;8.15;;;;;;;7.15;100.00;102497.66;5086637;28;20601;-67
2022/10/12 00:47:29;;;;;;;15.98;7.97;;;;;;;7.13;100.00;102499.28;5079928;28;20081;-67
2022/10/12 00:50:01;;;;;;;17.92;7.13;;;;;;;7.11;100.00;102498.28;5089841;28;20069;-67
2022/10/12 00:52:33;;;;;;;16.60;7.63;;;;;;;7.07;100.00;102499.84;5083101;28;20028;-67
2022/10/12 00:55:00;;;;;;;20.25;8.18;;;;;;;7.03;100.00;102501.38;5074112;28;20447;-68
2022/10/12 00:57:25;;;;;;;13.85;7.85;;;;;;;6.99;100.00;102494.16;5081535;28;20028;-68
2022/10/12 01:00:01;;;;;;;16.95;7.97;;;;;;;6.93;100.00;102499.03;5084323;28;20387;-67
2022/10/12 01:02:30;;;;;;;18.52;7.78;;;;;;;6.89;100.00;102491.81;5084410;28;20028;-67
2022/10/12 01:04:56;;;;;;;16.75;7.57;;;;;;;6.91;100.00;102487.59;5087055;28;20456;-66
2022/10/12 01:07:22;;;;;;;17.08;7.22;;;;;;;6.85;100.00;102484.59;5089401;28;20028;-67
2022/10/12 01:09:47;;;;;;;12.55;6.93;;;;;;;6.80;100.00;102486.97;5087832;28;20387;-66
2022/10/12 01:12:14;;;;;;;14.95;7.70;;;;;;;6.78;100.00;102495.53;5072150;28;20032;-66
2022/10/12 01:14:39;;;;;;;16.77;7.30;;;;;;;6.77;100.00;102493.72;5090574;28;20108;-66
2022/10/12 01:17:42;;;;;;;15.23;7.05;;;;;;;6.71;100.00;102484.69;5083497;28;20115;-66
2022/10/12 01:20:25;;;;;;;18.70;6.70;;;;;;;6.65;100.00;102489.56;5083821;28;20036;-67
2022/10/12 01:23:17;;;;;;;19.58;7.18;;;;;;;6.61;100.00;102474.50;5087639;28;20494;-66
2022/10/12 01:26:25;;;;;;;14.75;7.05;;;;;;;6.58;100.00;102469.13;5086267;28;21698;-66
2022/10/12 01:28:53;;;;;;;15.68;7.75;;;;;;;6.57;100.00;102469.91;5077846;28;20095;-66
2022/10/12 01:31:34;;;;;;;15.35;6.68;;;;;;;6.52;100.00;102468.72;5083963;28;20062;-67
2022/10/12 01:34:24;;;;;;;16.30;7.93;;;;;;;6.51;100.00;102465.22;5085782;28;20104;-66
2022/10/12 01:37:08;;;;;;;9.40;6.43;;;;;;;6.49;100.00;102466.84;5079096;28;20170;-66
2022/10/12 01:39:40;;;;;;;13.75;7.22;;;;;;;6.45;100.00;102474.41;5092631;28;20383;-68
2022/10/12 01:42:15;;;;;;;21.23;6.15;;;;;;;6.40;100.00;102471.50;5082260;28;20396;-66
2022/10/12 01:44:40;;;;;;;14.63;6.97;;;;;;;6.38;100.00;102460.97;5084834;28;20020;-66
2022/10/12 01:47:05;;;;;;;15.13;6.40;;;;;;;6.35;100.00;102463.41;5077751;28;20490;-67
2022/10/12 01:49:33;;;;;;;14.30;6.43;;;;;;;6.33;100.00;102462.41;5075164;28;20098;-66
2022/10/12 01:52:17;;;;;;;13.35;6.28;;;;;;;6.32;100.00;102455.38;5085834;28;20476;-67
2022/10/12 01:55:00;;;;;;;13.68;6.55;;;;;;;6.29;100.00;102457.78;5078685;28;20024;-66
2022/10/12 01:58:03;;;;;;;13.40;5.93;;;;;;;6.27;100.00;102450.66;5076235;28;20077;-67
2022/10/12 02:00:33;;;;;;;11.38;6.10;;;;;;;6.26;100.00;102454.13;5088112;28;20028;-67
2022/10/12 02:03:26;;;;;;;10.07;6.22;;;;;;;6.21;100.00;102457.34;5088692;28;20333;-67
2022/10/12 02:06:03;;;;;;;13.07;6.30;;;;;;;6.20;100.00;102452.00;5078084;28;20028;-67
2022/10/12 02:08:40;;;;;;;15.82;6.80;;;;;;;6.18;100.00;102453.66;5081940;28;20020;-66
2022/10/12 02:11:09;;;;;;;17.33;6.95;;;;;;;6.17;100.00;102449.22;5081822;28;20055;-65
2022/10/12 02:13:40;;;;;;;13.07;6.15;;;;;;;6.09;100.00;102448.78;5096312;28;20020;-67
2022/10/12 02:16:11;;;;;;;11.77;6.20;;;;;;;6.07;100.00;102437.31;5094615;28;20503;-67
2022/10/12 02:18:41;;;;;;;13.20;6.78;;;;;;;6.14;100.00;102438.59;5080212;28;20024;-66
2022/10/12 02:21:10;;;;;;;15.85;7.18;;;;;;;6.12;100.00;102440.19;5091806;28;20465;-66
2022/10/12 02:23:37;;;;;;;14.07;6.53;;;;;;;6.08;100.00;102434.78;5095900;28;20023;-66
2022/10/12 02:26:04;;;;;;;12.60;6.55;;;;;;;6.07;100.00;102432.09;5091881;28;20110;-66
2022/10/12 02:28:33;;;;;;;10.65;6.47;;;;;;;6.05;100.00;102431.06;5083725;28;20472;-66
2022/10/12 02:31:14;;;;;;;14.40;6.82;;;;;;;6.08;100.00;102433.91;5087547;28;20467;-67
2022/10/12 02:33:56;;;;;;;12.38;6.65;;;;;;;6.02;100.00;102428.28;5080403;28;20042;-67
2022/10/12 02:36:42;;;;;;;19.25;6.82;;;;;;;6.02;100.00;102431.81;5092941;28;20039;-67
2022/10/12 02:39:16;;;;;;;13.93;7.20;;;;;;;5.99;100.00;102433.34;5080593;28;20475;-67
2022/10/12 02:41:56;;;;;;;10.15;6.40;;;;;;;5.96;100.00;102427.91;5081098;28;20464;-67
2022/10/12 02:44:25;;;;;;;11.05;6.28;;;;;;;5.97;100.00;102424.44;5094135;28;20434;-67
2022/10/12 02:46:53;;;;;;;10.35;6.13;;;;;;;5.94;100.00;102419.97;5088498;28;20024;-66
2022/10/12 02:49:21;;;;;;;19.27;7.40;;;;;;;5.86;100.00;102424.72;5093529;28;20111;-67
2022/10/12 02:51:47;;;;;;;10.65;6.32;;;;;;;5.85;100.00;102414.19;5088147;28;20398;-67
2022/10/12 02:54:12;;;;;;;16.35;7.00;;;;;;;5.87;100.00;102417.75;5094459;28;20019;-66
2022/10/12 02:56:43;;;;;;;12.93;6.25;;;;;;;5.85;100.00;102419.41;5090790;28;20852;-66
2022/10/12 02:59:09;;;;;;;10.63;6.43;;;;;;;5.83;100.00;102421.00;5093588;28;20107;-66
2022/10/12 03:01:34;;;;;;;14.60;6.82;;;;;;;5.80;100.00;102412.97;5090704;28;20529;-66
2022/10/12 03:03:59;;;;;;;20.13;5.85;;;;;;;5.80;100.00;102412.97;5093921;28;20444;-66
2022/10/12 03:06:26;;;;;;;13.13;6.32;;;;;;;5.78;100.00;102406.75;5086947;28;20052;-66
2022/10/12 03:08:52;;;;;;;11.07;5.97;;;;;;;5.76;100.00;102398.81;5087757;28;20020;-67
2022/10/12 03:11:17;;;;;;;11.18;6.30;;;;;;;5.72;100.00;102402.97;5094415;28;20039;-66
2022/10/12 03:13:42;;;;;;;10.60;6.50;;;;;;;5.68;100.00;102405.28;5080155;28;20042;-67
2022/10/12 03:16:10;;;;;;;10.32;5.90;;;;;;;5.73;100.00;102409.97;5086351;28;20422;-67
2022/10/12 03:18:37;;;;;;;12.65;6.30;;;;;;;5.73;100.00;102403.88;5082725;28;20483;-66
2022/10/12 03:21:03;;;;;;;10.02;5.97;;;;;;;5.66;100.00;102402.59;5088907;28;20051;-67
2022/10/12 03:23:28;;;;;;;20.88;6.85;;;;;;;5.66;100.00;102399.97;5090718;28;20582;-67
2022/10/12 03:25:53;;;;;;;15.32;7.18;;;;;;;5.65;100.00;102407.72;5094479;28;20031;-67
2022/10/12 03:28:19;;;;;;;13.10;6.07;;;;;;;5.74;100.00;102406.56;5094054;28;20103;-67
2022/10/12 03:30:45;;;;;;;15.18;6.15;;;;;;;5.70;100.00;102404.56;5086735;28;20031;-67
2022/10/12 03:33:10;;;;;;;18.55;7.43;;;;;;;5.70;100.00;102404.56;5080242;28;20103;-67
2022/10/12 03:35:35;;;;;;;10.90;6.28;;;;;;;5.68;100.00;102408.81;5086869;28;20079;-67
2022/10/12 03:38:01;;;;;;;16.77;6.13;;;;;;;5.68;100.00;102403.59;5093266;28;20024;-67
2022/10/12 03:40:26;;;;;;;12.52;6.32;;;;;;;5.68;100.00;102401.00;5092223;28;20110;-67
2022/10/12 03:42:52;;;;;;;26.23;7.32;;;;;;;5.68;100.00;102406.22;5083777;28;20164;-67
2022/10/12 03:45:17;;;;;;;17.00;7.35;;;;;;;5.68;100.00;102407.91;5089298;28;20031;-67
2022/10/12 03:47:42;;;;;;;19.15;7.45;;;;;;;5.67;100.00;102412.22;5082148;28;20035;-67
2022/10/12 03:50:08;;;;;;;11.80;6.75;;;;;;;5.66;100.00;102399.97;5085653;28;20032;-67
2022/10/12 03:52:33;;;;;;;12.43;6.20;;;;;;;5.62;100.00;102411.03;5094354;28;20032;-68
2022/10/12 03:54:59;;;;;;;16.48;6.47;;;;;;;5.61;100.00;102408.34;5077217;28;20495;-67
2022/10/12 03:57:24;;;;;;;15.98;5.97;;;;;;;5.59;100.00;102403.03;5093215;28;20031;-67
2022/10/12 03:59:49;;;;;;;11.07;6.78;;;;;;;5.58;100.00;102411.66;5094428;28;20055;-67
2022/10/12 04:02:15;;;;;;;12.05;6.70;;;;;;;5.57;100.00;102412.44;5092375;28;20955;-67
2022/10/12 04:04:40;;;;;;;10.43;6.45;;;;;;;5.53;100.00;102411.34;5089626;28;20375;-67
2022/10/12 04:07:06;;;;;;;14.18;6.30;;;;;;;5.54;100.00;102407.06;5079714;28;20482;-67
2022/10/12 04:09:31;;;;;;;14.00;6.65;;;;;;;5.52;100.00;102401.75;5081970;28;20028;-67
2022/10/12 04:11:56;;;;;;;20.83;6.97;;;;;;;5.55;100.00;102401.91;5089768;28;20063;-67
2022/10/12 04:14:22;;;;;;;13.15;6.82;;;;;;;5.56;100.00;102403.72;5091040;28;20490;-67
2022/10/12 04:16:47;;;;;;;11.68;6.78;;;;;;;5.68;100.00;102406.22;5093155;28;20027;-66
2022/10/12 04:19:13;;;;;;;13.65;7.40;;;;;;;5.67;100.00;102404.41;5092618;28;20024;-67
2022/10/12 04:21:39;;;;;;;16.92;8.30;;;;;;;5.65;100.00;102405.09;5093623;28;20051;-67
2022/10/12 04:24:05;;;;;;;20.63;8.90;;;;;;;5.64;100.00;102405.91;5092191;28;20153;-67
2022/10/12 04:26:30;;;;;;;18.15;8.20;;;;;;;5.64;100.00;102400.69;5092819;28;20073;-66
2022/10/12 04:28:55;;;;;;;19.33;9.45;;;;;;;5.67;100.00;102401.78;5090860;28;20055;-67
2022/10/12 04:31:21;;;;;;;17.92;8.85;;;;;;;5.67;100.00;102395.63;5091464;28;20031;-67
2022/10/12 04:33:46;;;;;;;17.08;7.50;;;;;;;5.76;100.00;102397.94;5079384;28;20025;-66
2022/10/12 04:36:12;;;;;;;16.95;8.48;;;;;;;5.74;100.00;102401.34;5075722;28;20032;-67
2022/10/12 04:38:37;;;;;;;14.65;8.07;;;;;;;5.76;100.00;102392.72;5077378;28;20032;-67
2022/10/12 04:41:03;;;;;;;14.55;8.13;;;;;;;5.74;100.00;102388.28;5093161;28;20066;-67
2022/10/12 04:43:28;;;;;;;17.95;7.35;;;;;;;5.76;100.00;102382.25;5080855;28;20067;-67
2022/10/12 04:45:58;;;;;;;12.25;7.40;;;;;;;5.72;100.00;102383.78;5080752;28;20028;-67
2022/10/12 04:48:25;;;;;;;12.57;7.80;;;;;;;5.71;100.00;102379.34;5085833;28;20020;-67
2022/10/12 04:50:51;;;;;;;13.38;7.22;;;;;;;5.84;100.00;102386.25;5092976;28;20099;-67
2022/10/12 04:53:16;;;;;;;16.27;7.30;;;;;;;5.78;100.00;102376.31;5093080;28;20095;-66
2022/10/12 04:55:41;;;;;;;11.88;7.35;;;;;;;5.77;100.00;102374.50;5080911;28;20048;-65
2022/10/12 04:58:06;;;;;;;12.43;7.45;;;;;;;5.78;100.00;102370.19;5093006;28;20475;-65
2022/10/12 05:00:32;;;;;;;18.73;7.18;;;;;;;5.80;100.00;102373.81;5091395;28;20091;-66
2022/10/12 05:02:57;;;;;;;16.05;8.23;;;;;;;5.82;100.00;102366.94;5092472;28;20035;-66
2022/10/12 05:05:22;;;;;;;12.50;7.43;;;;;;;5.84;100.00;102370.56;5092135;28;20337;-66
2022/10/12 05:07:48;;;;;;;16.60;7.82;;;;;;;5.86;100.00;102363.72;5091649;28;20024;-66
2022/10/12 05:10:13;;;;;;;17.60;7.50;;;;;;;5.87;100.00;102370.75;5092129;28;20099;-66
2022/10/12 05:12:39;;;;;;;20.40;8.48;;;;;;;5.94;100.00;102372.00;5091491;28;20417;-67
2022/10/12 05:15:04;;;;;;;11.63;7.20;;;;;;;5.89;100.00;102367.41;5089026;28;20020;-66
2022/10/12 05:17:30;;;;;;;14.93;7.45;;;;;;;5.88;100.00;102368.22;5091148;28;20119;-67
2022/10/12 05:19:55;;;;;;;17.88;7.72;;;;;;;5.85;100.00;102367.16;5087870;28;20024;-67
2022/10/12 05:22:20;;;;;;;13.80;7.00;;;;;;;5.87;100.00;102362.91;5079323;28;20551;-66
2022/10/12 05:24:46;;;;;;;11.93;7.15;;;;;;;5.83;100.00;102368.75;5090654;28;20024;-66
2022/10/12 05:27:11;;;;;;;12.88;7.22;;;;;;;5.80;100.00;102376.41;5081196;28;20468;-67
2022/10/12 05:29:36;;;;;;;10.95;6.70;;;;;;;5.76;100.00;102377.03;5092196;28;20032;-67
2022/10/12 05:32:02;;;;;;;11.82;6.95;;;;;;;5.69;100.00;102381.88;5089184;28;20039;-66
2022/10/12 05:34:27;;;;;;;10.98;7.38;;;;;;;5.67;100.00;102377.34;5080867;28;20027;-67
2022/10/12 05:36:53;;;;;;;17.42;7.57;;;;;;;5.62;100.00;102369.25;5082784;28;20373;-65
2022/10/12 05:39:18;;;;;;;9.65;6.72;;;;;;;5.59;100.00;102374.31;5081665;28;20024;-66
2022/10/12 05:41:43;;;;;;;14.60;6.82;;;;;;;5.60;100.00;102365.63;5081008;28;20514;-67
2022/10/12 05:44:09;;;;;;;12.35;6.80;;;;;;;5.59;100.00;102374.31;5089293;28;20032;-67
2022/10/12 05:46:34;;;;;;;10.02;6.78;;;;;;;5.61;100.00;102367.44;5082564;28;20080;-66
2022/10/12 05:48:59;;;;;;;9.35;6.32;;;;;;;5.61;100.00;102371.78;5086781;28;20344;-66
2022/10/12 05:51:25;;;;;;;10.57;6.72;;;;;;;5.56;100.00;102368.88;5090949;28;20020;-67
2022/10/12 05:53:50;;;;;;;14.63;7.10;;;;;;;5.60;100.00;102365.63;5080991;28;20028;-66
2022/10/12 05:56:15;;;;;;;14.50;6.50;;;;;;;5.58;100.00;102370.75;5088863;28;20055;-66
2022/10/12 05:58:41;;;;;;;12.30;6.85;;;;;;;5.56;100.00;102368.88;5062442;28;20024;-66
2022/10/12 06:01:09;;;;;;;12.60;7.20;;;;;;;5.61;100.00;102364.84;5090353;28;20069;-67
2022/10/12 06:03:35;;;;;;;12.40;7.15;;;;;;;5.60;100.00;102370.84;5089573;28;20028;-67
2022/10/12 06:06:01;;;;;;;11.45;7.90;;;;;;;5.60;100.00;102369.97;5085588;28;20016;-67
2022/10/12 06:08:28;;;;;;;15.88;7.65;;;;;;;5.56;100.00;102368.88;5085919;28;20044;-67
2022/10/12 06:10:54;;;;;;;19.73;7.40;;;;;;;5.52;100.00;102366.88;5081975;28;20035;-67
2022/10/12 06:13:19;;;;;;;13.02;7.57;;;;;;;5.51;100.00;102365.09;5087819;28;20029;-67
2022/10/12 06:15:45;;;;;;;16.27;8.40;;;;;;;5.51;100.00;102365.09;5076783;28;20028;-67
2022/10/12 06:18:11;;;;;;;10.90;7.28;;;;;;;5.51;100.00;102360.75;5080651;28;20024;-67
2022/10/12 06:20:37;;;;;;;17.02;7.22;;;;;;;5.51;100.00;102365.09;5089969;28;20176;-67
2022/10/12 06:23:02;;;;;;;11.07;6.63;;;;;;;5.48;100.00;102364.88;5082877;28;20032;-67
2022/10/12 06:25:28;;;;;;;9.75;6.13;;;;;;;5.47;100.00;102360.50;5080003;28;20067;-66
2022/10/12 06:27:53;;;;;;;13.13;7.18;;;;;;;5.48;100.00;102354.44;5091404;28;20048;-67
2022/10/12 06:30:18;;;;;;;12.38;7.25;;;;;;;5.50;100.00;102352.84;5077533;28;20036;-67
2022/10/12 06:32:44;;;;;;;14.43;7.68;;;;;;;5.54;100.00;102360.06;5088475;28;20020;-65
2022/10/12 06:35:09;;;;;;;16.33;8.38;;;;;;;5.62;100.00;102353.59;5089850;28;20061;-68
2022/10/12 06:37:34;;;;;;;13.65;8.30;;;;;;;5.68;100.00;102356.59;5092008;28;20017;-68
2022/10/12 06:39:59;;;;;;;15.40;8.32;;;;;;;5.79;100.00;102357.22;5085685;28;20507;-67
2022/10/12 06:42:25;;;;;;;12.23;7.63;;;;;;;5.85;100.00;102351.47;5079879;28;20478;-66
2022/10/12 06:44:50;;;;;;;18.85;8.55;;;;;;;5.93;100.00;102350.22;5094675;28;20031;-66
2022/10/12 06:47:15;;;;;;;13.98;8.90;;;;;;;5.96;100.00;102347.78;5087224;28;20098;-65
2022/10/12 06:49:41;;;;;;;19.08;8.60;;;;;;;6.00;100.00;102349.81;5087818;28;20736;-65
2022/10/12 06:52:06;;;;;;;16.23;8.88;;;;;;;6.06;100.00;102346.66;5083164;28;20024;-66
2022/10/12 06:54:31;;;;;;;18.25;8.63;;;;;;;6.13;100.00;102353.16;5089916;28;20055;-66
2022/10/12 06:56:57;;;;;;;18.17;8.13;;;;;;;6.21;100.00;102357.09;5087240;28;20044;-66
2022/10/12 06:59:22;;;;;;;18.58;8.40;;;;;;;6.27;100.00;102357.47;5082915;28;20044;-66
2022/10/12 07:01:49;;;;;;;15.82;8.73;;;;;;;6.31;100.00;102356.84;5080895;28;20020;-65
2022/10/12 07:04:18;;;;;;;18.58;9.63;;;;;;;6.37;100.00;102367.66;5088296;28;20020;-67
2022/10/12 07:06:43;;;;;;;17.52;10.07;;;;;;;6.45;100.00;102356.75;5079342;28;20035;-66
2022/10/12 07:09:09;;;;;;;19.70;9.80;;;;;;;6.54;100.00;102357.28;5076001;28;20028;-66
2022/10/12 07:11:34;;;;;;;19.55;10.80;;;;;;;6.61;100.00;102358.53;5094773;28;20073;-66
2022/10/12 07:14:00;;;;;;;25.20;9.68;;;;;;;6.66;100.00;102362.28;5087140;28;20032;-66
2022/10/12 07:16:25;;;;;;;18.92;9.68;;;;;;;6.66;100.00;102357.97;5085570;28;20032;-66
2022/10/12 07:18:50;;;;;;;17.35;10.80;;;;;;;6.68;100.00;102361.56;5091664;28;20064;-67
2022/10/12 07:21:16;;;;;;;27.63;10.95;;;;;;;6.67;100.00;102354.53;5077977;28;20382;-66
2022/10/12 07:23:42;;;;;;;17.85;10.27;;;;;;;6.68;100.00;102358.97;5075156;28;20115;-65
2022/10/12 07:26:08;;;;;;;22.17;9.45;;;;;;;6.68;100.00;102356.34;5076890;28;20257;-66
2022/10/12 07:28:34;;;;;;;21.05;10.20;;;;;;;6.68;100.00;102355.44;5076899;28;20029;-66
2022/10/12 07:31:05;;;;;;;25.17;11.98;;;;;;;6.71;100.00;102359.13;5093888;28;20035;-66
2022/10/12 07:33:39;;;;;;;25.38;10.70;;;;;;;6.73;100.00;102354.00;5086348;28;20024;-66
2022/10/12 07:36:04;;;;;;;;;;;;;;;6.76;100.00;102359.41;5095704;28;20375;-66
2022/10/12 07:38:30;;;;;;;24.23;13.38;;;;;;;6.80;100.00;102361.38;5088388;28;19912;-67
2022/10/12 07:41:00;;;;;;;20.52;11.48;;;;;;;6.84;100.00;102365.97;5076521;28;20035;-67
2022/10/12 07:43:26;;;;;;;17.45;10.77;;;;;;;6.89;100.00;102367.13;5075857;28;20032;-66
2022/10/12 07:45:53;;;;;;;27.35;11.90;;;;;;;6.96;100.00;102367.44;5075707;28;20151;-66
2022/10/12 07:48:19;;;;;;;26.83;12.63;;;;;;;7.02;100.00;102358.22;5086682;28;20024;-66
2022/10/12 07:50:44;;;;;;;22.48;14.15;;;;;;;7.09;100.00;102365.63;5089874;28;20098;-66
2022/10/12 07:53:10;;;;;;;22.80;11.80;;;;;;;7.16;100.00;102360.72;5092107;28;20485;-66
2022/10/12 07:55:35;;;;;;;19.65;11.60;;;;;;;7.26;100.00;102355.19;5083834;28;20960;-66
2022/10/12 07:58:01;;;;;;;20.02;11.98;;;;;;;7.36;100.00;102362.69;5080375;28;20112;-66
2022/10/12 08:00:27;;;;;;;23.40;11.27;;;;;;;7.45;100.00;102361.38;5076551;28;20048;-66
2022/10/12 08:02:53;;;;;;;23.58;13.35;;;;;;;7.55;100.00;102366.31;5080407;28;20070;-66
2022/10/12 08:05:20;;;;;;;24.33;12.63;;;;;;;7.67;100.00;102376.56;5081340;28;20045;-66
2022/10/12 08:07:46;;;;;;;27.63;12.32;;;;;;;7.77;100.00;102378.81;5094203;28;20040;-66
2022/10/12 08:10:12;;;;;;;26.05;12.68;;;;;;;7.87;100.00;102372.38;5083710;28;20028;-66
2022/10/12 08:12:37;;;;;;;30.23;12.07;;;;;;;7.97;100.00;102374.63;5083101;28;20050;-66
2022/10/12 08:15:03;;;;;;;21.45;11.98;;;;;;;8.08;100.00;102381.34;5089232;28;20020;-65
2022/10/12 08:17:28;;;;;;;23.50;11.60;;;;;;;8.20;100.00;102382.78;5078849;28;20483;-66
2022/10/12 08:19:53;;;;;;;25.63;13.07;;;;;;;8.31;100.00;102378.97;5079682;28;20114;-66
2022/10/12 08:22:19;;;;;;;19.55;11.45;;;;;;;8.45;100.00;102374.50;5078465;28;20443;-67
2022/10/12 08:24:44;;;;;;;19.33;10.70;;;;;;;8.56;100.00;102364.50;5084626;28;20112;-66
2022/10/12 08:27:09;;;;;;;17.88;9.38;;;;;;;8.68;100.00;102365.13;5087657;28;20074;-66
2022/10/12 08:29:35;;;;;;;16.42;10.02;;;;;;;8.81;100.00;102361.34;5083347;28;20064;-65
2022/10/12 08:32:00;;;;;;;19.63;9.93;;;;;;;8.94;100.00;102370.75;5076959;28;20040;-67
2022/10/12 08:34:26;;;;;;;21.30;9.57;;;;;;;9.04;100.00;102370.31;5090348;28;20028;-65
2022/10/12 08:36:52;;;;;;;22.70;9.98;;;;;;;9.15;100.00;102367.31;5090143;28;20046;-67
2022/10/12 08:39:17;;;;;;;24.00;9.05;;;;;;;9.31;100.00;102369.84;5077787;28;20024;-67
2022/10/12 08:42:15;;;;;;;19.40;9.80;;;;;;;9.44;100.00;102372.19;5086856;28;20464;-67
2022/10/12 08:44:59;;;;;;;21.17;8.27;;;;;;;9.63;100.00;102378.31;5072757;28;20106;-67
2022/10/12 08:47:47;;;;;;;21.77;9.07;;;;;;;9.86;100.00;102376.69;5078814;28;20096;-67
2022/10/12 08:50:28;;;;;;;23.23;8.75;;;;;;;10.05;100.00;102373.16;5078119;28;20112;-67
2022/10/12 08:53:10;;;;;;;22.02;8.93;;;;;;;10.29;100.00;102367.13;5086919;28;20029;-67
2022/10/12 08:55:43;;;;;;;18.35;8.27;;;;;;;10.67;100.00;102364.31;5075992;28;20057;-67
2022/10/12 08:58:39;;;;;;;15.03;7.40;;;;;;;11.00;100.00;102348.97;5075731;28;20059;-67
2022/10/12 09:01:37;;;;;;;21.60;7.88;;;;;;;11.35;100.00;102345.88;5076555;28;20283;-67
2022/10/12 09:04:21;;;;;;;14.05;6.43;;;;;;;11.64;100.00;102341.69;5077434;28;20031;-67
2022/10/12 09:06:59;;;;;;;14.23;6.07;;;;;;;11.75;100.00;102355.28;5079385;28;20170;-67
2022/10/12 09:10:02;;;;;;;13.98;5.38;;;;;;;11.79;100.00;102360.69;5078859;28;20020;-66
2022/10/12 09:12:31;;;;;;;16.10;6.18;;;;;;;11.84;100.00;102359.97;5082636;28;20039;-67
2022/10/12 09:15:02;;;;;;;14.93;6.38;;;;;;;11.90;100.00;102357.56;5083866;28;20044;-67
2022/10/12 09:18:10;;;;;;;14.18;5.50;;;;;;;12.06;100.00;102375.75;5080551;28;20455;-65
2022/10/12 09:20:46;;;;;;;19.40;6.45;;;;;;;12.19;100.00;102369.16;5026852;28;20087;-65
2022/10/12 09:23:32;;;;;;;12.65;6.50;;;;;;;12.33;100.00;102382.84;5077570;28;20070;-66
2022/10/12 09:26:06;;;;;;;11.50;6.22;;;;;;;12.48;100.00;102377.19;5079559;28;20480;-66
2022/10/12 09:28:53;;;;;;;20.30;7.18;;;;;;;12.60;100.00;102379.31;5084429;28;20032;-65
2022/10/12 09:31:25;;;;;;;14.13;5.45;;;;;;;12.82;100.00;102383.56;5076771;28;20414;-65
2022/10/12 09:33:58;;;;;;;15.57;5.78;;;;;;;12.99;100.00;102381.44;5087503;28;20042;-65
2022/10/12 09:36:29;;;;;;;17.65;7.65;;;;;;;13.25;100.00;102379.63;5075016;28;20030;-68
2022/10/12 09:38:58;;;;;;;21.65;7.43;;;;;;;13.51;100.00;102376.88;5074299;28;20484;-66
2022/10/12 09:41:29;;;;;;;16.95;6.03;;;;;;;13.69;100.00;102372.94;5087937;28;20040;-68
2022/10/12 09:43:58;;;;;;;17.33;5.78;;;;;;;13.88;100.00;102369.09;5080625;28;20059;-66
2022/10/12 09:46:54;;;;;;;14.18;4.72;;;;;;;14.09;100.00;102363.47;5081229;28;20032;-66
2022/10/12 09:49:19;;;;;;;19.55;5.75;;;;;;;14.24;100.00;102352.38;5076315;28;20115;-66
2022/10/12 09:51:45;;;;;;;17.25;5.18;;;;;;;14.28;99.30;102351.59;5080749;28;20627;-66
2022/10/12 09:54:22;;;;;;;16.05;4.85;;;;;;;14.36;96.54;102346.50;5088868;28;20020;-64
2022/10/12 09:56:50;;;;;;;17.90;5.53;;;;;;;14.32;96.19;102356.13;5088025;28;20575;-66
2022/10/12 09:59:29;;;;;;;13.57;5.93;;;;;;;14.35;100.00;102342.94;5086255;28;20052;-66
2022/10/12 10:02:06;;;;;;;13.00;6.07;;;;;;;14.66;100.00;102331.41;5089914;28;20032;-74
2022/10/12 10:04:33;;;;;;;14.75;6.05;;;;;;;14.88;100.00;102331.91;5090432;28;20020;-66
2022/10/12 10:07:26;;;;;;;14.50;6.20;;;;;;;15.15;100.00;102331.63;5087406;28;20116;-66
2022/10/12 10:10:17;;;;;;;15.30;6.47;;;;;;;15.38;96.23;102315.25;5082543;28;20039;-66
2022/10/12 10:12:57;;;;;;;15.63;4.80;;;;;;;15.66;85.26;102307.88;5085840;28;20036;-66
2022/10/12 10:15:39;;;;;;;19.42;5.85;;;;;;;15.94;82.50;102305.72;5079943;28;20031;-66
2022/10/12 10:18:18;;;;;;;16.65;6.80;;;;;;;16.12;82.56;102292.78;5079807;28;20115;-66
2022/10/12 10:21:01;;;;;;;16.85;6.65;;;;;;;16.32;89.88;102297.56;5081885;28;20021;-67
2022/10/12 10:23:41;;;;;;;14.18;7.03;;;;;;;16.56;86.78;102286.38;5086268;28;20023;-67
2022/10/12 10:26:13;;;;;;;17.38;7.45;;;;;;;16.77;81.45;102280.50;5087497;28;20111;-67
2022/10/12 10:28:44;;;;;;;16.67;7.22;;;;;;;16.81;76.69;102281.44;5076901;28;20036;-66
2022/10/12 10:31:13;;;;;;;17.35;6.70;;;;;;;16.87;76.44;102281.50;5079704;28;20055;-67
2022/10/12 10:33:39;;;;;;;22.02;7.50;;;;;;;16.89;79.96;102277.16;5083003;28;20069;-66
2022/10/12 10:36:26;;;;;;;23.35;7.72;;;;;;;16.67;81.62;102275.91;5092623;28;20073;-66
2022/10/12 10:38:58;;;;;;;15.23;6.38;;;;;;;16.71;79.57;102269.75;5081340;28;20047;-66
2022/10/12 10:41:30;;;;;;;19.02;7.05;;;;;;;16.86;89.69;102272.66;5088106;28;20081;-66
2022/10/12 10:43:55;;;;;;;19.40;7.03;;;;;;;17.05;77.05;102261.38;5078132;28;20115;-67
2022/10/12 10:46:26;;;;;;;16.35;6.60;;;;;;;17.49;68.01;102263.69;5091978;28;20111;-67
2022/10/12 10:49:00;;;;;;;16.58;5.20;;;;;;;17.71;63.45;102259.47;5081211;28;20025;-66
2022/10/12 10:51:50;;;;;;;12.18;5.30;;;;;;;18.03;61.18;102256.25;5091113;28;20111;-66
2022/10/12 10:54:26;;;;;;;10.68;4.97;;;;;;;18.10;59.72;102263.38;5095645;28;20024;-66
2022/10/12 10:56:57;;;;;;;14.82;4.47;;;;;;;18.06;58.91;102260.69;5078308;28;20143;-67
2022/10/12 10:59:38;;;;;;;11.27;4.28;;;;;;;17.81;59.85;102256.00;5076638;28;20032;-68
2022/10/12 11:02:22;;;;;;;19.75;5.55;;;;;;;17.49;60.04;102269.88;5080932;28;20111;-67
2022/10/12 11:04:55;;;;;;;;;;;;;;;17.19;59.49;102260.69;5075886;28;20037;-67
2022/10/12 11:07:41;;;;;;;15.43;5.43;;;;;;;16.90;63.14;102263.00;5089880;28;19916;-67
2022/10/12 11:10:32;;;;;;;16.48;5.55;;;;;;;16.62;64.97;102264.34;5078548;28;20391;-66
2022/10/12 11:13:31;;;;;;;12.00;4.30;;;;;;;16.31;67.57;102263.88;5086154;28;20365;-67
2022/10/12 11:16:13;;;;;;;12.00;5.05;;;;;;;16.04;70.34;102245.75;5070054;28;20508;-67
2022/10/12 11:18:45;;;;;;;17.48;5.75;;;;;;;15.78;72.57;102248.81;5079791;28;20035;-67
2022/10/12 11:21:14;;;;;;;17.00;5.80;;;;;;;15.55;74.99;102246.63;5086152;28;20464;-67
2022/10/12 11:23:48;;;;;;;13.88;5.82;;;;;;;15.39;76.43;102249.88;5095415;28;20032;-67
2022/10/12 11:26:28;;;;;;;16.33;5.43;;;;;;;15.27;78.60;102251.41;5095093;28;20035;-68
2022/10/12 11:28:56;;;;;;;13.55;6.25;;;;;;;15.15;79.94;102252.06;5075481;28;20115;-66
2022/10/12 11:31:46;;;;;;;20.63;7.18;;;;;;;15.06;84.42;102256.28;5075262;28;20025;-66